Main page
METAR-TAF:

METAR-TAF

Airports :

Tan Son Nhat International Airport

Ho Chi Minh City, Vietnam

latitude: 10-49N, longitude: 106-40E, elevation: 19 m

Current weather observation

The report was made 37 minutes ago, at 17:00 UTC
Wind 6 kt from the West/Southwest
Temperature 26°C
Humidity 94%
Pressure 1010 hPa
Visibility 10 km or more
Scattered clouds at a height of 1700 ft

METAR: VVTS 221700Z 25006KT 9999 SCT017 26/25 Q1010 NOSIG

Time: 00:37 (17:37 UTC)

Forecast

The report was made 6 hours and 37 minutes ago, at 11:00 UTC
Forecast valid from 22 at 12 UTC to 23 at 18 UTC
Wind 10 kt from the West/Southwest
Visibility 10 km or more
Scattered clouds at a height of 1700 ft
Temporary
from 23 at 07 UTC to 23 at 12 UTC
Wind 15 kt from the West/Southwest with gusts up to 30 kt
Visibility: 4000 m
Broken clouds at a height of 1300 ft
Few clouds at a height of 1500 ft, Cumulonimbus.
thunderstorm, rain

TAF: VVTS 221100Z 2212/2318 24010KT 9999 SCT017 TEMPO 2307/2312 24015G30KT 4000 TSRA BKN013 FEW015CB

Weather observations and forecasts of more than 4000 airports (METAR and TAF reports).

The available stations are represented by yellow and red dots on the map.

Hover mouse over dot to see the name of the station.

Then click to see weather observations and forecasts.

To change the map : click on the green buttons with a black cross to zoom in, on the green button with a dash to zoom out, or on the green arrows for adjacent maps.


METAR-TAF: